Time;durP1;ratioP1;P1;durP2;ratioP2;P2;SDS_P1;SDS_P2;PMS_P1;PMS_P2;Temp;Humidity;BMP_temperature;BMP_pressure;BME280_temperature;BME280_humidity;BME280_pressure;Samples;Min_cycle;Max_cycle;Signal;HPM_P1;HPM_P2
2021/10/10 02:57:30;;;;;;;13.23;11.80;;;8.80;98.30;;;;;;5055847;23;1845655;-82
2021/10/10 03:00:02;;;;;;;12.60;11.40;;;8.80;98.30;;;;;;5124173;23;20257;-83
2021/10/10 03:02:09;;;;;;;18.17;12.83;;;8.80;98.30;;;;;;5124700;23;20835;-84
2021/10/10 03:04:20;;;;;;;16.40;12.50;;;8.80;98.30;;;;;;5124536;23;20425;-83
2021/10/10 03:06:27;;;;;;;12.43;11.13;;;8.70;98.30;;;;;;5124265;23;20928;-84
2021/10/10 03:08:31;;;;;;;14.73;13.20;;;8.70;98.30;;;;;;5124558;23;20483;-83
2021/10/10 03:24:06;;;;;;;12.80;11.20;;;8.50;98.30;;;;;;5036292;23;20413;-83
2021/10/10 03:26:14;;;;;;;14.43;11.93;;;8.50;98.30;;;;;;5123002;23;20397;-83
2021/10/10 03:28:35;;;;;;;14.27;11.87;;;8.50;98.30;;;;;;5124692;23;20448;-83
2021/10/10 03:30:55;;;;;;;13.93;12.50;;;8.40;98.30;;;;;;5115313;23;20453;-84
2021/10/10 03:32:59;;;;;;;14.63;13.03;;;8.40;98.30;;;;;;5124471;23;20461;-83
2021/10/10 03:35:04;;;;;;;15.60;12.33;;;8.30;98.30;;;;;;5124775;23;20422;-84
2021/10/10 03:37:26;;;;;;;13.73;12.23;;;8.40;98.30;;;;;;5124401;23;20453;-83
2021/10/10 03:39:39;;;;;;;14.43;12.13;;;8.30;98.30;;;;;;5124383;23;20752;-83
2021/10/10 03:41:51;;;;;;;13.30;11.60;;;8.30;98.30;;;;;;5125131;23;20480;-83
2021/10/10 03:43:57;;;;;;;12.73;11.43;;;8.30;98.30;;;;;;5124929;23;20459;-83
2021/10/10 03:46:02;;;;;;;18.27;12.67;;;8.30;98.30;;;;;;5124449;23;20426;-83
2021/10/10 03:48:07;;;;;;;13.70;11.80;;;8.20;98.30;;;;;;5124520;23;20512;-83
2021/10/10 03:50:49;;;;;;;14.70;12.27;;;8.10;98.30;;;;;;5115231;23;20422;-83
2021/10/10 03:55:43;;;;;;;15.57;13.37;;;7.90;98.30;;;;;;5124496;23;20424;-83
2021/10/10 03:57:49;;;;;;;14.63;12.37;;;7.70;98.30;;;;;;5125237;23;20515;-83
2021/10/10 03:59:55;;;;;;;15.60;13.10;;;7.70;98.30;;;;;;5116761;23;20541;-83
2021/10/10 04:02:05;;;;;;;14.70;12.67;;;7.50;98.30;;;;;;5125339;23;21028;-83
2021/10/10 04:04:09;;;;;;;14.70;12.30;;;7.40;98.30;;;;;;5125617;23;20401;-83
2021/10/10 04:06:12;;;;;;;15.23;13.60;;;7.20;98.30;;;;;;5126793;23;20418;-83
2021/10/10 04:08:16;;;;;;;16.10;13.53;;;7.10;98.30;;;;;;5117690;23;20424;-83
2021/10/10 04:10:20;;;;;;;16.77;13.47;;;6.90;98.30;;;;;;5125739;23;20767;-82
2021/10/10 04:12:23;;;;;;;16.73;13.93;;;6.90;98.30;;;;;;5118077;23;20468;-82
2021/10/10 04:14:27;;;;;;;15.17;13.67;;;6.80;98.30;;;;;;5118617;23;20465;-82
2021/10/10 04:16:30;;;;;;;16.50;13.57;;;6.70;98.30;;;;;;5126503;23;20426;-82
2021/10/10 04:18:34;;;;;;;16.90;14.80;;;6.60;98.30;;;;;;5126351;23;20430;-82
2021/10/10 04:20:37;;;;;;;16.17;13.73;;;6.60;98.30;;;;;;5126345;23;20428;-83
2021/10/10 04:22:42;;;;;;;17.70;14.10;;;6.40;98.30;;;;;;5125888;23;20507;-83
2021/10/10 04:24:45;;;;;;;16.70;14.83;;;6.40;98.30;;;;;;5125842;23;20499;-82
2021/10/10 04:26:48;;;;;;;16.40;14.80;;;6.30;98.30;;;;;;5127481;23;20997;-83
2021/10/10 04:28:51;;;;;;;17.23;15.53;;;6.20;98.30;;;;;;5119741;23;20432;-82
2021/10/10 04:30:55;;;;;;;18.20;16.20;;;6.00;98.30;;;;;;5128028;23;20498;-82
2021/10/10 04:32:58;;;;;;;15.13;13.53;;;6.00;98.30;;;;;;5127798;23;20516;-82
2021/10/10 04:35:01;;;;;;;17.13;15.33;;;6.10;98.30;;;;;;5127605;23;20426;-82
2021/10/10 04:37:06;;;;;;;16.30;14.60;;;6.10;98.30;;;;;;5127773;23;20555;-82
2021/10/10 04:39:09;;;;;;;15.87;14.27;;;6.10;98.30;;;;;;5127993;23;20835;-83
2021/10/10 04:41:12;;;;;;;18.53;16.60;;;6.20;98.30;;;;;;5119948;23;20434;-82
2021/10/10 04:43:15;;;;;;;17.70;14.57;;;6.10;98.30;;;;;;5127679;23;20741;-82
2021/10/10 04:45:18;;;;;;;17.50;15.70;;;6.00;98.30;;;;;;5126292;23;20434;-82
2021/10/10 04:47:23;;;;;;;18.50;14.50;;;6.10;98.30;;;;;;5119518;23;20450;-82
2021/10/10 04:49:26;;;;;;;17.00;15.30;;;6.00;98.30;;;;;;5128714;23;20414;-83
2021/10/10 04:51:29;;;;;;;16.03;14.10;;;6.20;98.30;;;;;;5127723;23;20477;-82
2021/10/10 04:53:31;;;;;;;17.83;15.10;;;6.30;98.30;;;;;;5120182;23;20505;-82
2021/10/10 04:55:34;;;;;;;16.97;15.07;;;6.30;98.30;;;;;;5128710;23;20405;-83
2021/10/10 04:57:37;;;;;;;16.20;14.50;;;6.20;98.30;;;;;;5129011;23;20462;-82
2021/10/10 04:59:40;;;;;;;20.83;16.10;;;6.20;98.30;;;;;;5128639;23;21169;-82
2021/10/10 05:01:43;;;;;;;21.87;17.73;;;6.20;98.30;;;;;;5129409;23;20428;-82
2021/10/10 05:03:48;;;;;;;19.33;15.53;;;6.20;98.30;;;;;;5130092;23;20447;-82
2021/10/10 05:05:51;;;;;;;16.83;14.37;;;6.20;98.30;;;;;;5121516;23;20445;-82
2021/10/10 05:07:54;;;;;;;16.30;14.60;;;6.20;98.30;;;;;;5121695;23;20477;-82
2021/10/10 05:09:57;;;;;;;16.73;14.50;;;6.20;98.30;;;;;;5129099;23;20452;-82
2021/10/10 05:12:05;;;;;;;15.23;13.80;;;6.10;98.30;;;;;;5120150;23;20453;-82
2021/10/10 05:14:08;;;;;;;16.03;14.33;;;5.90;98.30;;;;;;5128823;23;20770;-82
2021/10/10 05:16:11;;;;;;;16.60;14.90;;;5.80;98.30;;;;;;5120931;23;20497;-82
2021/10/10 05:18:14;;;;;;;16.60;15.00;;;5.90;98.30;;;;;;5131897;23;20449;-83
2021/10/10 05:20:18;;;;;;;18.47;15.00;;;5.90;98.30;;;;;;5135506;23;20505;-83
2021/10/10 05:22:21;;;;;;;17.10;14.67;;;5.90;98.30;;;;;;5142971;23;20420;-82
2021/10/10 05:24:24;;;;;;;18.70;15.00;;;5.90;98.30;;;;;;5135863;23;20430;-81
2021/10/10 05:26:27;;;;;;;19.17;15.30;;;5.80;98.30;;;;;;5138561;23;20504;-80
2021/10/10 05:28:30;;;;;;;15.70;14.07;;;5.80;98.30;;;;;;5131151;23;20429;-80
2021/10/10 05:30:33;;;;;;;18.07;14.40;;;5.80;98.30;;;;;;5130926;23;21036;-80
2021/10/10 05:32:36;;;;;;;16.40;14.70;;;5.80;98.30;;;;;;5130066;23;20468;-81
2021/10/10 05:34:39;;;;;;;16.90;15.10;;;5.80;98.30;;;;;;5120925;23;20434;-82
2021/10/10 05:36:43;;;;;;;17.00;14.70;;;5.90;98.30;;;;;;5130025;23;20418;-82
2021/10/10 05:38:46;;;;;;;18.67;15.63;;;5.90;98.30;;;;;;5129842;23;20903;-82
2021/10/10 05:40:49;;;;;;;15.50;13.70;;;6.00;98.30;;;;;;5130155;23;20553;-82
2021/10/10 05:42:52;;;;;;;17.97;14.17;;;6.00;98.30;;;;;;5142000;23;20445;-82
2021/10/10 05:44:55;;;;;;;16.40;14.23;;;6.10;98.30;;;;;;5133654;23;20487;-83
2021/10/10 05:46:58;;;;;;;17.70;15.47;;;6.20;98.30;;;;;;5142214;23;20510;-83
2021/10/10 05:49:01;;;;;;;15.57;13.83;;;6.10;98.30;;;;;;5141405;23;20422;-82
2021/10/10 05:51:04;;;;;;;16.20;14.50;;;6.30;98.30;;;;;;5132021;23;20515;-83
2021/10/10 05:53:08;;;;;;;17.73;15.57;;;6.20;98.30;;;;;;5125352;23;20440;-82
2021/10/10 05:55:14;;;;;;;17.37;15.40;;;6.30;98.30;;;;;;5117604;23;20436;-82
2021/10/10 05:57:20;;;;;;;17.83;15.23;;;6.30;98.30;;;;;;5125404;23;20453;-83
2021/10/10 05:59:23;;;;;;;21.60;15.33;;;6.30;98.30;;;;;;5126074;23;20504;-83
2021/10/10 06:01:26;;;;;;;18.60;14.20;;;6.30;98.30;;;;;;5116889;23;20461;-82
2021/10/10 06:03:29;;;;;;;18.00;15.33;;;6.30;98.30;;;;;;5116665;23;20461;-83
2021/10/10 06:05:33;;;;;;;16.97;15.20;;;6.30;98.30;;;;;;5125976;23;20500;-82
2021/10/10 06:07:36;;;;;;;18.87;14.63;;;6.20;98.30;;;;;;5117211;23;20425;-83
2021/10/10 06:09:42;;;;;;;15.20;13.60;;;6.30;98.30;;;;;;5128927;23;20480;-82
2021/10/10 06:11:45;;;;;;;15.60;13.97;;;6.30;98.30;;;;;;5118047;23;20408;-82
2021/10/10 06:13:48;;;;;;;16.07;14.30;;;6.30;98.30;;;;;;5125270;23;20429;-83
2021/10/10 06:15:51;;;;;;;17.13;14.00;;;6.40;98.30;;;;;;5125617;23;20483;-83
2021/10/10 06:17:54;;;;;;;16.23;14.27;;;6.40;98.30;;;;;;5126785;23;20428;-82
2021/10/10 06:19:58;;;;;;;20.30;16.07;;;6.50;98.30;;;;;;5129518;23;20422;-82
2021/10/10 06:22:00;;;;;;;17.70;14.80;;;6.50;98.30;;;;;;5125234;23;20501;-82
2021/10/10 06:24:04;;;;;;;15.60;14.10;;;6.50;98.30;;;;;;5125333;23;20718;-82
2021/10/10 06:26:08;;;;;;;19.10;14.43;;;6.60;98.30;;;;;;5124945;23;20497;-82
2021/10/10 06:28:11;;;;;;;18.10;14.83;;;6.60;98.30;;;;;;5125026;23;20438;-83
2021/10/10 06:30:14;;;;;;;15.93;14.30;;;6.70;98.30;;;;;;5116829;23;20514;-83
2021/10/10 06:32:17;;;;;;;15.63;13.93;;;6.90;98.30;;;;;;5124818;23;20403;-82
2021/10/10 06:34:21;;;;;;;15.50;13.70;;;7.10;98.30;;;;;;5116553;23;20411;-83
2021/10/10 06:36:24;;;;;;;16.23;14.63;;;7.20;98.30;;;;;;5124524;23;20422;-82
2021/10/10 06:38:27;;;;;;;17.80;15.20;;;7.20;98.30;;;;;;5125058;23;20930;-82
2021/10/10 06:40:30;;;;;;;16.20;13.97;;;7.20;98.30;;;;;;5117378;23;20428;-83
2021/10/10 06:42:35;;;;;;;16.63;13.97;;;7.20;98.30;;;;;;5126568;23;21235;-83
2021/10/10 06:44:38;;;;;;;15.97;14.27;;;7.40;98.30;;;;;;5125346;23;20968;-82
2021/10/10 06:46:41;;;;;;;17.33;14.10;;;7.60;98.30;;;;;;5125476;23;20418;-83
2021/10/10 06:48:44;;;;;;;15.47;13.80;;;7.90;98.30;;;;;;5116175;23;20401;-83
2021/10/10 06:50:47;;;;;;;16.33;14.60;;;8.00;98.30;;;;;;5116511;23;20436;-83
2021/10/10 06:52:50;;;;;;;15.77;14.07;;;8.00;98.30;;;;;;5124646;23;21220;-83
2021/10/10 06:54:53;;;;;;;16.47;14.20;;;8.10;98.30;;;;;;5116307;23;20496;-83
2021/10/10 06:56:56;;;;;;;16.50;13.90;;;8.20;98.30;;;;;;5115853;23;20467;-83
2021/10/10 06:59:03;;;;;;;16.93;15.03;;;8.30;98.30;;;;;;5116416;23;20509;-83
2021/10/10 07:01:05;;;;;;;17.13;14.70;;;8.40;98.30;;;;;;5124826;23;20442;-83
2021/10/10 07:03:09;;;;;;;21.43;15.50;;;8.60;98.30;;;;;;5124748;23;20725;-83
2021/10/10 07:05:13;;;;;;;15.20;13.60;;;8.80;98.30;;;;;;5124302;23;20432;-83
2021/10/10 07:07:16;;;;;;;17.07;13.47;;;8.80;98.30;;;;;;5124251;23;20424;-83
2021/10/10 07:09:19;;;;;;;15.37;13.67;;;8.80;98.30;;;;;;5124103;23;20918;-83
2021/10/10 07:11:23;;;;;;;15.90;12.90;;;8.60;98.30;;;;;;5124134;23;20425;-83
2021/10/10 07:13:26;;;;;;;16.23;14.47;;;8.60;98.30;;;;;;5124569;23;20561;-83
2021/10/10 07:15:30;;;;;;;16.67;13.60;;;8.60;98.30;;;;;;5115821;23;20466;-83
2021/10/10 07:17:34;;;;;;;17.40;12.93;;;8.80;98.30;;;;;;5124727;23;20421;-83
2021/10/10 07:19:43;;;;;;;13.97;12.10;;;8.90;98.30;;;;;;5116198;23;20508;-83
2021/10/10 07:21:55;;;;;;;15.33;13.73;;;9.00;98.30;;;;;;5123807;23;20422;-83
2021/10/10 07:26:19;;;;;;;14.63;13.10;;;9.20;98.30;;;;;;5124362;23;20416;-83
2021/10/10 07:28:22;;;;;;;16.50;14.33;;;9.10;98.30;;;;;;5124256;23;20434;-83
2021/10/10 07:30:25;;;;;;;16.77;12.53;;;9.10;98.30;;;;;;5116297;23;20437;-83
2021/10/10 07:32:30;;;;;;;17.37;13.37;;;9.00;98.30;;;;;;5124523;23;20750;-83
2021/10/10 07:34:33;;;;;;;18.73;14.77;;;9.00;98.30;;;;;;5124392;23;20422;-83
2021/10/10 07:36:36;;;;;;;19.97;14.30;;;9.10;98.30;;;;;;5125472;23;20900;-83
2021/10/10 07:38:39;;;;;;;17.20;12.87;;;9.20;98.30;;;;;;5124359;23;20428;-83
2021/10/10 07:40:42;;;;;;;16.90;13.63;;;9.30;98.30;;;;;;5116011;23;20444;-83
2021/10/10 07:42:45;;;;;;;14.67;11.97;;;9.50;98.30;;;;;;5123987;23;20418;-83
2021/10/10 07:44:50;;;;;;;15.00;12.33;;;9.70;98.30;;;;;;5124693;23;20413;-83
2021/10/10 07:47:06;;;;;;;19.13;13.07;;;9.70;98.30;;;;;;5124728;23;20446;-83
2021/10/10 07:49:12;;;;;;;15.83;12.27;;;9.90;98.30;;;;;;5124374;23;20459;-82
2021/10/10 07:51:16;;;;;;;17.10;13.10;;;9.90;98.30;;;;;;5116364;23;20509;-83
2021/10/10 07:53:19;;;;;;;18.03;12.07;;;10.00;98.30;;;;;;5124331;23;20422;-83
2021/10/10 07:55:22;;;;;;;13.30;11.80;;;10.10;98.30;;;;;;5116111;23;20481;-83
2021/10/10 07:57:24;;;;;;;16.73;12.53;;;10.10;98.30;;;;;;5124191;23;20449;-83
2021/10/10 07:59:27;;;;;;;18.67;13.80;;;10.20;98.30;;;;;;5116023;23;20406;-83
2021/10/10 08:01:30;;;;;;;21.63;13.93;;;10.50;98.30;;;;;;5125674;23;20869;-83
2021/10/10 08:03:34;;;;;;;16.30;12.57;;;10.50;98.30;;;;;;5125583;23;20421;-83
2021/10/10 08:05:42;;;;;;;15.23;13.00;;;10.50;98.30;;;;;;5125635;23;20425;-83
2021/10/10 08:07:45;;;;;;;15.63;12.30;;;10.50;98.30;;;;;;5125860;23;20437;-83
2021/10/10 08:09:48;;;;;;;17.10;12.53;;;10.80;98.30;;;;;;5125687;23;20812;-83
2021/10/10 08:11:51;;;;;;;15.07;11.50;;;10.80;98.30;;;;;;5117387;23;20436;-83
2021/10/10 08:13:54;;;;;;;19.10;12.60;;;10.80;98.30;;;;;;5125711;23;20436;-83
2021/10/10 08:15:57;;;;;;;27.73;11.50;;;10.80;98.30;;;;;;5125352;23;20457;-83
2021/10/10 08:18:00;;;;;;;15.43;11.43;;;10.90;98.30;;;;;;5125507;23;20442;-83
2021/10/10 08:20:05;;;;;;;15.73;12.30;;;11.00;98.30;;;;;;5117480;23;20433;-83
2021/10/10 08:22:09;;;;;;;17.83;12.03;;;11.10;98.30;;;;;;5125716;23;20445;-83
2021/10/10 08:24:12;;;;;;;14.63;11.90;;;11.10;98.30;;;;;;5125648;23;20520;-83
2021/10/10 08:26:15;;;;;;;14.63;12.10;;;11.50;98.30;;;;;;5116977;23;20512;-84
2021/10/10 08:28:18;;;;;;;15.57;12.63;;;11.80;98.30;;;;;;5125692;23;20442;-83
2021/10/10 08:30:21;;;;;;;15.60;11.47;;;12.20;98.30;;;;;;5125570;23;20454;-83
2021/10/10 08:32:24;;;;;;;16.53;12.37;;;12.40;98.30;;;;;;5125238;23;20422;-83
2021/10/10 08:34:27;;;;;;;13.07;11.50;;;12.30;97.20;;;;;;5125156;23;20430;-84
2021/10/10 08:36:30;;;;;;;15.10;11.73;;;12.20;97.70;;;;;;5125430;23;20505;-83
2021/10/10 08:38:35;;;;;;;15.87;12.30;;;12.10;97.80;;;;;;5125902;23;20421;-83
2021/10/10 08:40:38;;;;;;;16.57;11.93;;;11.90;97.80;;;;;;5125147;23;20786;-83
2021/10/10 08:42:45;;;;;;;16.30;12.70;;;11.70;98.30;;;;;;5125485;23;20449;-83
2021/10/10 08:44:52;;;;;;;14.13;12.47;;;11.30;98.30;;;;;;5125619;23;20510;-82
2021/10/10 08:47:01;;;;;;;14.30;11.53;;;11.20;98.30;;;;;;5125391;23;20988;-83
2021/10/10 08:49:04;;;;;;;13.77;11.63;;;11.30;98.30;;;;;;5117314;23;20440;-83
2021/10/10 08:51:07;;;;;;;14.50;11.03;;;11.10;98.30;;;;;;5125688;23;20513;-83
2021/10/10 08:53:30;;;;;;;16.13;12.80;;;11.30;98.30;;;;;;5116912;23;20479;-83
2021/10/10 08:55:34;;;;;;;15.90;11.80;;;11.50;98.30;;;;;;5125217;23;20434;-83
2021/10/10 23:05:57;;;;;;;36.80;31.10;;;9.70;98.30;;;;;;5078038;23;20539;-83
2021/10/10 23:08:00;;;;;;;37.00;31.20;;;9.70;98.30;;;;;;5078885;23;20515;-83
2021/10/10 23:10:05;;;;;;;36.10;31.10;;;9.70;98.30;;;;;;5075116;23;20504;-83
2021/10/10 23:12:10;;;;;;;38.47;31.93;;;9.70;98.30;;;;;;5075102;23;20459;-82
2021/10/10 23:14:13;;;;;;;41.80;29.07;;;9.70;98.30;;;;;;5074805;23;20447;-82
2021/10/10 23:16:18;;;;;;;35.73;30.37;;;9.80;98.30;;;;;;5075033;23;20764;-82
2021/10/10 23:18:21;;;;;;;34.60;29.20;;;9.80;98.30;;;;;;5075356;23;21337;-82
2021/10/10 23:20:24;;;;;;;35.27;30.67;;;9.80;98.30;;;;;;5075419;23;20428;-83
2021/10/10 23:22:28;;;;;;;39.40;32.50;;;9.80;98.30;;;;;;5074960;23;20458;-83
2021/10/10 23:24:32;;;;;;;39.80;31.53;;;9.70;98.30;;;;;;5075265;23;20755;-83
2021/10/10 23:26:35;;;;;;;39.27;31.03;;;9.70;98.30;;;;;;5075132;23;20438;-82
2021/10/10 23:28:38;;;;;;;37.53;32.03;;;9.70;98.30;;;;;;5075177;23;20402;-82
2021/10/10 23:30:41;;;;;;;41.03;31.90;;;9.70;98.30;;;;;;5074981;23;20438;-83
2021/10/10 23:32:44;;;;;;;38.10;30.73;;;9.70;98.30;;;;;;5074553;23;20444;-83
2021/10/10 23:34:47;;;;;;;38.10;30.07;;;9.70;98.30;;;;;;5074669;23;20447;-82
2021/10/10 23:36:50;;;;;;;40.00;32.63;;;9.80;98.30;;;;;;5074615;23;20736;-83
2021/10/10 23:38:54;;;;;;;38.40;33.70;;;9.80;98.30;;;;;;5075097;23;20435;-83
2021/10/10 23:40:57;;;;;;;41.17;32.57;;;9.80;98.30;;;;;;5074976;23;20432;-82
2021/10/10 23:43:01;;;;;;;39.33;31.10;;;9.90;98.30;;;;;;5074832;23;20738;-82
2021/10/10 23:45:04;;;;;;;40.73;32.67;;;9.80;98.30;;;;;;5074526;23;20547;-82
2021/10/10 23:47:07;;;;;;;42.13;34.03;;;9.90;98.30;;;;;;5074684;23;20427;-82
2021/10/10 23:49:10;;;;;;;41.60;32.70;;;9.90;98.30;;;;;;5075041;23;20482;-82
2021/10/10 23:51:13;;;;;;;46.37;33.57;;;9.90;98.30;;;;;;5074408;23;20657;-82
2021/10/10 23:53:16;;;;;;;43.07;32.90;;;10.00;98.30;;;;;;5074923;23;20448;-82
2021/10/10 23:55:20;;;;;;;45.20;33.03;;;10.00;98.30;;;;;;5074519;23;20454;-82
2021/10/10 23:57:23;;;;;;;42.03;33.67;;;10.00;98.30;;;;;;5074649;23;20779;-82
2021/10/10 23:59:26;;;;;;;40.13;32.37;;;10.10;98.30;;;;;;5074954;23;20431;-82
